Time;durP1;ratioP1;P1;durP2;ratioP2;P2;SDS_P1;SDS_P2;PMS_P1;PMS_P2;Temp;Humidity;BMP_temperature;BMP_pressure;BME280_temperature;BME280_humidity;BME280_pressure;Samples;Min_cycle;Max_cycle;Signal;HPM_P1;HPM_P2
2022/07/27 00:05:27;;;;;;;6.18;1.33;;;15.70;93.10;;;;;;6015447;23;20024;-91
2022/07/27 00:08:23;;;;;;;;;;;;;;;;;;;;;
2022/07/27 00:15:16;;;;;;;;;;;;;;;;;;;;;
2022/07/27 00:21:29;;;;;;;1.63;1.30;;;15.70;92.80;;;;;;6266378;22;20015;-91
2022/07/27 00:24:59;;;;;;;4.45;1.60;;;15.70;92.80;;;;;;6260773;22;20016;-89
2022/07/27 00:31:53;;;;;;;;;;;;;;;;;;;;;
2022/07/27 00:56:00;;;;;;;;;;;;;;;;;;;;;
2022/07/27 00:59:03;;;;;;;;;;;;;;;;;;;;;
2022/07/27 01:02:04;;;;;;;;;;;;;;;;;;;;;
2022/07/27 01:08:58;;;;;;;;;;;;;;;;;;;;;
2022/07/27 01:11:35;;;;;;;4.07;1.38;;;15.30;93.40;;;;;;6102564;23;20097;-89
2022/07/27 01:14:47;;;;;;;;;;;;;;;;;;;;;
2022/07/27 01:17:32;;;;;;;3.72;1.70;;;15.20;93.40;;;;;;6249325;23;20318;-89
2022/07/27 01:20:04;;;;;;;4.50;1.90;;;15.10;93.50;;;;;;6210369;23;20001;-89
2022/07/27 01:22:39;;;;;;;3.60;1.42;;;15.10;93.50;;;;;;6248360;23;20257;-89
2022/07/27 01:25:08;;;;;;;6.55;1.73;;;15.10;93.60;;;;;;6226030;22;20000;-90
2022/07/27 01:27:49;;;;;;;;;;;;;;;;;;;;;
2022/07/27 01:30:36;;;;;;;;;;;;;;;;;;;;;
2022/07/27 01:33:30;;;;;;;5.15;2.05;;;15.00;93.70;;;;;;6256751;23;20088;-88
2022/07/27 01:36:04;;;;;;;4.07;1.80;;;15.00;93.80;;;;;;6190081;23;20115;-91
2022/07/27 01:38:57;;;;;;;4.90;2.20;;;15.00;93.80;;;;;;6226177;23;20064;-88
2022/07/27 01:41:29;;;;;;;5.55;1.95;;;15.00;93.80;;;;;;6227092;23;20000;-90
2022/07/27 01:44:03;;;;;;;5.60;2.00;;;15.00;93.80;;;;;;6224893;23;20016;-91
2022/07/27 01:46:48;;;;;;;;;;;;;;;;;;;;;
2022/07/27 01:49:32;;;;;;;8.02;2.13;;;15.00;93.90;;;;;;6253476;23;20039;-89
2022/07/27 01:52:24;;;;;;;3.83;1.52;;;14.90;94.00;;;;;;6226650;23;20000;-89
2022/07/27 01:55:07;;;;;;;2.65;1.70;;;15.00;94.10;;;;;;6182079;23;20008;-89
2022/07/27 01:58:17;;;;;;;4.90;1.80;;;15.00;94.10;;;;;;6202230;23;20307;-88
2022/07/27 02:04:22;;;;;;;1.90;1.50;;;14.90;94.20;;;;;;6236755;23;20019;-89
2022/07/27 02:06:59;;;;;;;2.45;1.42;;;14.90;94.20;;;;;;6206616;23;20014;-92
2022/07/27 02:09:50;;;;;;;5.22;1.60;;;14.90;94.40;;;;;;6211420;22;20020;-89
2022/07/27 02:15:43;;;;;;;;;;;;;;;;;;;;;
2022/07/27 02:18:23;;;;;;;5.50;1.85;;;14.80;94.20;;;;;;6283135;22;20038;-90
2022/07/27 02:21:03;;;;;;;3.85;1.80;;;14.90;94.30;;;;;;6258692;22;20004;-89
2022/07/27 02:23:44;;;;;;;;;;;;;;;;;;;;;
2022/07/27 02:26:35;;;;;;;4.38;1.83;;;14.80;94.40;;;;;;6284456;22;20020;-89
2022/07/27 02:29:20;;;;;;;3.72;1.60;;;14.80;94.40;;;;;;6282805;22;20031;-91
2022/07/27 02:32:04;;;;;;;;;;;;;;;;;;;;;
2022/07/27 02:34:34;;;;;;;3.05;1.33;;;14.80;94.50;;;;;;6283210;22;20049;-90
2022/07/27 02:37:35;;;;;;;;;;;;;;;;;;;;;
2022/07/27 02:40:17;;;;;;;4.43;1.60;;;14.80;94.60;;;;;;6283606;22;20070;-87
2022/07/27 02:43:16;;;;;;;4.50;1.85;;;14.80;94.50;;;;;;6234649;22;20007;-89
2022/07/27 02:45:51;;;;;;;4.13;1.40;;;14.80;94.60;;;;;;6260311;22;20425;-90
2022/07/27 02:49:01;;;;;;;3.90;1.40;;;14.80;94.60;;;;;;6233487;22;20007;-91
2022/07/27 02:51:50;;;;;;;2.80;1.48;;;14.80;94.50;;;;;;6281735;22;20015;-89
2022/07/27 02:54:38;;;;;;;4.45;1.45;;;14.80;94.50;;;;;;6283903;22;20015;-89
2022/07/27 02:57:07;;;;;;;3.22;1.48;;;14.80;94.50;;;;;;6281927;22;19999;-90
2022/07/27 02:59:53;;;;;;;;;;;;;;;;;;;;;
2022/07/27 03:02:26;;;;;;;2.80;1.23;;;14.70;94.50;;;;;;6259011;22;20464;-89
2022/07/27 03:04:58;;;;;;;3.33;1.45;;;14.70;94.50;;;;;;6256626;22;20054;-91
2022/07/27 03:07:52;;;;;;;2.67;1.58;;;14.70;94.50;;;;;;6260810;22;19999;-88
2022/07/27 03:10:44;;;;;;;3.83;1.50;;;14.70;94.50;;;;;;6304274;22;19995;-89
2022/07/27 03:13:26;;;;;;;4.10;1.60;;;14.70;94.50;;;;;;6303738;22;20060;-89
2022/07/27 03:16:15;;;;;;;4.30;1.85;;;14.60;94.60;;;;;;6303528;22;20023;-90
2022/07/27 03:18:52;;;;;;;2.95;1.60;;;14.60;94.60;;;;;;6271497;22;20003;-90
2022/07/27 03:21:39;;;;;;;2.42;1.55;;;14.60;94.60;;;;;;6282050;22;20061;-88
2022/07/27 03:24:17;;;;;;;;;;;;;;;;;;;;;
2022/07/27 03:26:49;;;;;;;4.18;2.38;;;14.60;94.80;;;;;;6281485;22;20039;-91
2022/07/27 03:29:16;;;;;;;3.45;1.55;;;14.60;94.80;;;;;;6231460;22;20027;-90
2022/07/27 03:32:05;;;;;;;3.25;1.60;;;14.50;94.80;;;;;;6255968;22;20039;-90
2022/07/27 03:35:17;;;;;;;3.08;1.50;;;14.50;94.80;;;;;;6280804;22;20003;-90
2022/07/27 03:38:01;;;;;;;2.78;1.75;;;14.50;95.00;;;;;;6262162;22;20012;-89
2022/07/27 03:40:52;;;;;;;4.03;1.65;;;14.50;95.00;;;;;;6258861;22;20035;-89
2022/07/27 03:43:21;;;;;;;4.13;1.95;;;14.40;95.10;;;;;;6260214;22;20007;-90
2022/07/27 03:46:17;;;;;;;;;;;;;;;;;;;;;
2022/07/27 03:49:03;;;;;;;;;;;;;;;;;;;;;
2022/07/27 03:51:38;;;;;;;3.33;1.30;;;14.40;95.20;;;;;;6281715;22;20071;-89
2022/07/27 03:54:29;;;;;;;6.13;2.03;;;14.40;95.20;;;;;;6281590;22;20007;-89
2022/07/27 03:57:26;;;;;;;4.03;1.48;;;14.40;95.20;;;;;;6241150;22;20320;-91
2022/07/27 04:03:25;;;;;;;3.38;1.65;;;14.40;95.20;;;;;;6291993;22;20066;-89
2022/07/27 04:09:42;;;;;;;;;;;;;;;;;;;;;
2022/07/27 04:12:13;;;;;;;3.50;1.67;;;14.30;95.30;;;;;;6288403;22;20016;-90
2022/07/27 04:14:46;;;;;;;4.15;1.63;;;14.20;95.40;;;;;;6288446;22;20033;-90
2022/07/27 04:20:22;;;;;;;3.35;1.50;;;14.10;95.50;;;;;;6290802;22;20018;-89
2022/07/27 04:23:42;;;;;;;3.35;1.65;;;14.10;95.60;;;;;;6300824;22;20004;-90
2022/07/27 04:26:26;;;;;;;;;;;;;;;;;;;;;
2022/07/27 04:29:18;;;;;;;3.63;1.73;;;14.10;95.70;;;;;;6306205;22;20011;-86
2022/07/27 04:32:06;;;;;;;;;;;14.10;95.70;;;;;;6260978;22;19988;-90
2022/07/27 04:34:38;;;;;;;5.85;1.90;;;14.10;95.70;;;;;;6306415;22;19891;-89
2022/07/27 04:37:19;;;;;;;3.20;1.50;;;14.10;95.80;;;;;;6280850;22;20011;-90
2022/07/27 04:40:04;;;;;;;3.80;2.17;;;14.20;95.80;;;;;;6280938;22;19999;-90
2022/07/27 04:42:37;;;;;;;4.70;1.60;;;14.20;95.90;;;;;;6300578;22;20387;-89
2022/07/27 04:45:18;;;;;;;3.58;1.88;;;14.20;95.90;;;;;;6285057;22;20096;-89
2022/07/27 04:47:57;;;;;;;;;;;;;;;;;;;;;
2022/07/27 04:50:52;;;;;;;4.47;1.80;;;14.20;95.90;;;;;;6285213;22;20027;-88
2022/07/27 04:57:40;;;;;;;;;;;;;;;;;;;;;
2022/07/27 08:57:59;;;;;;;2.35;0.65;;;18.80;87.70;;;;;;6309976;22;20065;-91
2022/07/27 09:00:33;;;;;;;1.92;0.60;;;18.80;87.70;;;;;;6285791;22;20003;-90
2022/07/27 09:03:04;;;;;;;2.17;0.85;;;18.90;87.60;;;;;;6286026;22;19999;-89
2022/07/27 09:05:47;;;;;;;3.38;1.15;;;19.00;86.40;;;;;;6285694;22;20396;-88
2022/07/27 09:08:27;;;;;;;2.13;1.00;;;19.10;85.70;;;;;;6312884;22;20349;-88
2022/07/27 09:11:02;;;;;;;4.13;0.90;;;19.00;84.60;;;;;;6289546;22;19999;-88
2022/07/27 09:13:32;;;;;;;2.67;0.73;;;19.10;84.40;;;;;;6287062;22;20003;-90
2022/07/27 09:16:05;;;;;;;3.60;0.93;;;19.10;83.70;;;;;;6259925;22;20003;-89
2022/07/27 09:18:41;;;;;;;1.88;1.08;;;19.10;81.30;;;;;;6260704;22;20530;-90
2022/07/27 09:21:22;;;;;;;1.95;0.90;;;19.10;82.10;;;;;;6237639;22;20018;-89
2022/07/27 09:23:50;;;;;;;1.85;0.80;;;19.20;82.10;;;;;;6286009;22;20007;-88
2022/07/27 09:26:34;;;;;;;4.57;0.75;;;19.20;81.40;;;;;;6285316;22;20007;-88
2022/07/27 09:29:08;;;;;;;2.28;0.80;;;19.20;81.60;;;;;;6285945;22;20004;-88
2022/07/27 09:32:01;;;;;;;1.88;0.90;;;19.20;81.40;;;;;;6259638;22;20029;-89
2022/07/27 09:34:33;;;;;;;3.38;0.90;;;19.30;80.60;;;;;;6285131;22;20314;-89
2022/07/27 09:37:14;;;;;;;3.53;0.90;;;19.30;80.00;;;;;;6286573;22;19996;-88
2022/07/27 09:39:46;;;;;;;2.03;0.80;;;19.30;80.70;;;;;;6238938;22;20010;-87
2022/07/27 09:42:19;;;;;;;2.05;0.80;;;19.40;81.10;;;;;;6260005;22;20003;-88
2022/07/27 09:45:15;;;;;;;2.15;0.70;;;19.50;81.60;;;;;;6261105;22;20007;-87
2022/07/27 09:48:11;;;;;;;4.18;1.85;;;19.60;81.60;;;;;;6301158;22;20090;-87
2022/07/27 09:50:42;;;;;;;6.35;4.68;;;19.70;81.80;;;;;;6284989;22;20034;-87
2022/07/27 09:53:32;;;;;;;4.90;2.90;;;19.70;82.30;;;;;;6285676;22;20000;-89
2022/07/27 09:56:27;;;;;;;2.75;1.85;;;19.70;82.70;;;;;;6265829;22;20491;-88
2022/07/27 09:59:04;;;;;;;2.08;1.05;;;19.80;83.20;;;;;;6313003;22;20062;-88
2022/07/27 10:01:39;;;;;;;1.67;1.00;;;19.80;83.10;;;;;;6285123;22;20031;-89
2022/07/27 10:04:08;;;;;;;3.00;1.00;;;19.90;82.60;;;;;;6262403;22;20514;-90
2022/07/27 10:06:54;;;;;;;3.45;0.93;;;19.90;82.20;;;;;;6286338;22;20008;-91
2022/07/27 10:09:52;;;;;;;4.53;1.13;;;19.90;80.60;;;;;;6265487;22;20014;-90
2022/07/27 10:12:19;;;;;;;4.57;1.25;;;19.80;80.10;;;;;;6290430;22;20400;-90
2022/07/27 10:15:12;;;;;;;2.85;1.13;;;19.80;79.60;;;;;;6285584;22;20003;-88
2022/07/27 10:21:23;;;;;;;8.43;2.60;;;19.70;79.20;;;;;;6231232;22;20045;-90
2022/07/27 10:24:26;;;;;;;;;;;;;;;;;;;;;
2022/07/27 10:27:44;;;;;;;;;;;;;;;;;;;;;
2022/07/27 10:30:32;;;;;;;2.17;1.13;;;19.70;79.20;;;;;;6319688;22;20022;-91
2022/07/27 10:34:06;;;;;;;3.35;1.20;;;19.60;79.30;;;;;;6289168;22;20003;-90
2022/07/27 10:37:19;;;;;;;4.13;1.00;;;19.60;79.20;;;;;;6284332;22;20019;-91
2022/07/27 10:40:48;;;;;;;3.78;1.10;;;19.70;78.00;;;;;;6166225;22;20092;-90
2022/07/27 10:43:10;;;;;;;3.00;1.05;;;19.70;78.20;;;;;;6309089;22;20003;-91
2022/07/27 10:46:02;;;;;;;1.95;0.70;;;19.70;75.90;;;;;;6298853;22;20007;-89
2022/07/27 10:48:42;;;;;;;1.55;0.60;;;19.70;76.10;;;;;;6279394;22;20064;-91
2022/07/27 10:52:23;;;;;;;1.87;0.90;;;19.70;74.60;;;;;;6262660;22;20026;-90
2022/07/27 10:55:04;;;;;;;;;;;;;;;;;;;;;
2022/07/27 10:57:49;;;;;;;1.38;0.60;;;19.80;73.10;;;;;;6281093;22;20042;-91
2022/07/27 11:00:57;;;;;;;1.45;0.80;;;19.80;73.50;;;;;;6259114;22;20031;-93
2022/07/27 11:03:52;;;;;;;0.90;0.47;;;19.80;74.30;;;;;;6283816;22;20010;-90
2022/07/27 11:06:51;;;;;;;2.55;0.90;;;19.90;72.30;;;;;;6282129;22;20008;-90
2022/07/27 11:10:12;;;;;;;;;;;;;;;;;;;;;
2022/07/27 11:12:41;;;;;;;;;;;19.90;70.20;;;;;;6285212;22;20015;-91
2022/07/27 11:15:08;;;;;;;3.35;0.70;;;19.80;70.60;;;;;;6256596;22;19998;-91
2022/07/27 11:18:00;;;;;;;3.50;0.98;;;19.80;71.40;;;;;;6282207;22;20022;-91
2022/07/27 11:20:29;;;;;;;1.95;0.60;;;19.80;71.40;;;;;;6258261;22;20015;-90
2022/07/27 11:23:16;;;;;;;2.38;0.80;;;19.80;72.10;;;;;;6283004;22;20030;-91
2022/07/27 11:25:59;;;;;;;2.10;0.80;;;19.80;73.20;;;;;;6283622;22;20004;-92
2022/07/27 11:28:40;;;;;;;4.30;1.00;;;19.90;74.00;;;;;;6284961;22;20000;-91
2022/07/27 11:31:06;;;;;;;;;;;20.10;74.40;;;;;;6284219;22;20004;-88
2022/07/27 11:33:34;;;;;;;1.25;0.70;;;20.10;74.10;;;;;;6288083;22;19946;-91
2022/07/27 11:36:03;;;;;;;2.47;0.70;;;20.20;74.90;;;;;;6297047;22;20070;-91
2022/07/27 11:38:43;;;;;;;1.25;0.65;;;20.30;74.50;;;;;;6295905;22;19996;-89
2022/07/27 13:39:55;;;;;;;;;;;;;;;;;;;;;
2022/07/27 17:54:07;;;;;;;2.67;0.90;;;20.60;67.60;;;;;;6191917;22;20046;31
